Weather History for Madison, SD

Change the Weather History Date:

Monday, December 31, 2012

  Actual Average Record
Temperature  
Mean Temperature 12 °F -  
Max Temperature 17 °F 19 °F 35 °F (2011)
Min Temperature 6 °F 3 °F -7 °F (2013)
Degree Days  
Heating Degree Days 54    
Moisture  
Dew Point 11 °F    
Average Humidity 100    
Maximum Humidity 100    
Minimum Humidity 100    
Precipitation  
Precipitation 0.00 in - - ()
Sea Level Pressure  
Sea Level Pressure 30.15 in    
Wind  
Wind Speed 11 mph (NE)    
Max Wind Speed 20 mph    
Max Gust Speed 29 mph    
Visibility 10 miles    
Events Snow    
Averages and records for this station are not official NWS values.
T = Trace of Precipitation, MM = Missing Value Source: NWS Daily Summary

Daily Weather History Graph

Daily Weather History Graph

Search for Another Location

Airport:

Trip Planner

Search our weather history database for the weather conditions in past years. The results will help you decide how hot, cold, wet, or windy it might be!

Date:

Astronomy

Dec. 31, 2012 Rise Set
Actual Time 8:03 AM CST 5:00 PM CST
Civil Twilight 7:30 AM CST 5:33 PM CST
Nautical Twilight 6:53 AM CST 6:09 PM CST
Astronomical Twilight 6:18 AM CST 6:44 PM CST
Moon 8:40 PM CST (12/31) 9:38 AM CST (12/31)
Length of Visible Light 10h 03m
Length of Day
8h 57m
Waning Gibbous, 90% of the Moon is Illuminated
Dec 31
Waning Gibbous
Jan 4
Last Quarter
Jan 11
New
Jan 18
First Quarter
Jan 26
Full

Hourly Weather History & Observations

Time (CST) Temp. Windchill Dew Point Humidity Pressure Visibility Wind Dir Wind Speed Gust Speed Precip Events Conditions
12:00 AM 17.6 °F 1.3 °F 17.6 °F 100% 30.07 in 10.0 mi North 19.6 mph 25.3 mph N/A   Overcast
12:20 AM 17.6 °F 2.2 °F 17.6 °F 100% 30.07 in 10.0 mi North 17.3 mph 23.0 mph N/A   Overcast
12:40 AM 17.6 °F 1.3 °F 17.6 °F 100% 30.07 in 10.0 mi North 19.6 mph 24.2 mph N/A   Overcast
1:00 AM 17.6 °F 3.2 °F 17.6 °F 100% 30.08 in 10.0 mi North 15.0 mph - N/A   Overcast
1:20 AM 17.6 °F 5.7 °F 17.6 °F 100% 30.09 in 10.0 mi North 10.4 mph - N/A   Overcast
1:40 AM 17.6 °F 4.3 °F 17.6 °F 100% 30.10 in 10.0 mi North 12.7 mph - N/A   Overcast
2:00 AM 17.6 °F 5.7 °F 17.6 °F 100% 30.11 in 10.0 mi North 10.4 mph - N/A   Overcast
2:20 AM 17.6 °F 5.7 °F 17.6 °F 100% 30.12 in 10.0 mi NNW 10.4 mph - N/A   Overcast
2:40 AM 17.6 °F 5.0 °F 17.6 °F 100% 30.13 in 10.0 mi North 11.5 mph - N/A   Overcast
3:00 AM 17.6 °F 5.0 °F 17.6 °F 100% 30.13 in 10.0 mi North 11.5 mph - N/A   Overcast
3:20 AM 17.6 °F 5.0 °F 17.6 °F 100% 30.13 in 10.0 mi North 11.5 mph - N/A   Overcast
3:40 AM 17.6 °F 4.3 °F 17.6 °F 100% 30.13 in 10.0 mi NNW 12.7 mph - N/A   Overcast
4:00 AM 17.6 °F 6.4 °F 17.6 °F 100% 30.12 in 10.0 mi NNW 9.2 mph - N/A   Overcast
4:20 AM 17.6 °F 6.4 °F 17.6 °F 100% 30.11 in 10.0 mi NNW 9.2 mph - N/A   Overcast
4:40 AM 17.6 °F 3.7 °F 17.6 °F 100% 30.12 in 10.0 mi NNW 13.8 mph 19.6 mph N/A   Overcast
5:00 AM 17.6 °F 6.4 °F 17.6 °F 100% 30.13 in 10.0 mi NNW 9.2 mph - N/A   Overcast
5:20 AM 17.6 °F 2.7 °F 17.6 °F 100% 30.14 in 10.0 mi NNW 16.1 mph - N/A   Overcast
5:40 AM 17.6 °F 3.2 °F 17.6 °F 100% 30.15 in 10.0 mi NNW 15.0 mph - N/A   Overcast
6:00 AM 17.6 °F 3.2 °F 17.6 °F 100% 30.14 in 10.0 mi NNW 15.0 mph - N/A Snow Light Snow
6:20 AM 15.8 °F -0.6 °F 15.8 °F 100% 30.14 in 10.0 mi NNW 18.4 mph 28.8 mph N/A Snow Light Snow
6:40 AM 14.0 °F -2.0 °F 14.0 °F 100% 30.14 in 10.0 mi NNW 16.1 mph - N/A   Mostly Cloudy
7:20 AM 14.0 °F 1.2 °F 14.0 °F 100% 30.15 in 10.0 mi NNW 10.4 mph - N/A   Mostly Cloudy
7:40 AM 10.4 °F -3.3 °F 10.4 °F 100% 30.14 in 10.0 mi NNW 10.4 mph - N/A   Partly Cloudy
8:00 AM 8.6 °F -4.7 °F 8.6 °F 100% 30.15 in 10.0 mi NW 9.2 mph - N/A   Clear
8:20 AM 10.4 °F -3.3 °F 10.4 °F 100% 30.16 in 10.0 mi NNW 10.4 mph - N/A   Clear
8:40 AM 10.4 °F -3.3 °F 10.4 °F 100% 30.16 in 10.0 mi NNW 10.4 mph - N/A   Clear
9:00 AM 10.4 °F -4.1 °F 10.4 °F 100% 30.16 in 10.0 mi NNW 11.5 mph - N/A   Clear
9:20 AM 10.4 °F -5.4 °F 10.4 °F 100% 30.15 in 10.0 mi North 13.8 mph - N/A   Clear
9:40 AM 10.4 °F -4.8 °F 10.4 °F 100% 30.16 in 10.0 mi North 12.7 mph - N/A   Clear
10:00 AM 10.4 °F -3.3 °F 10.4 °F 100% 30.16 in 10.0 mi North 10.4 mph - N/A   Clear
10:20 AM 10.4 °F -2.4 °F 10.4 °F 100% 30.17 in 10.0 mi North 9.2 mph - N/A   Clear
10:40 AM 10.4 °F -1.5 °F 10.4 °F 100% 30.16 in 10.0 mi North 8.1 mph - N/A   Clear
11:00 AM 10.4 °F -3.3 °F 10.4 °F 100% 30.15 in 10.0 mi NE 10.4 mph - N/A   Clear
11:20 AM 10.4 °F -3.3 °F 10.4 °F 100% 30.16 in 10.0 mi NNE 10.4 mph - N/A   Clear
11:40 AM 10.4 °F -0.4 °F 10.4 °F 100% 30.16 in 10.0 mi ENE 6.9 mph - N/A   Clear
12:00 PM 10.4 °F -1.5 °F 10.4 °F 100% 30.16 in 10.0 mi East 8.1 mph - N/A   Clear
12:20 PM 10.4 °F -1.5 °F 10.4 °F 100% 30.16 in 10.0 mi East 8.1 mph - N/A   Clear
12:40 PM 10.4 °F -0.4 °F 10.4 °F 100% 30.16 in 10.0 mi East 6.9 mph - N/A   Scattered Clouds
1:00 PM 10.4 °F -0.4 °F 10.4 °F 100% 30.15 in 10.0 mi East 6.9 mph - N/A   Mostly Cloudy
1:20 PM 10.4 °F -0.4 °F 10.4 °F 100% 30.14 in 10.0 mi East 6.9 mph - N/A   Partly Cloudy
1:40 PM 10.4 °F 0.8 °F 10.4 °F 100% 30.14 in 10.0 mi East 5.8 mph - N/A   Clear
2:00 PM 10.4 °F 0.8 °F 10.4 °F 100% 30.15 in 10.0 mi East 5.8 mph - N/A   Partly Cloudy
2:20 PM 10.4 °F 2.2 °F 10.4 °F 100% 30.15 in 10.0 mi ESE 4.6 mph - N/A   Partly Cloudy
2:40 PM 10.4 °F -0.4 °F 10.4 °F 100% 30.16 in 10.0 mi East 6.9 mph - N/A   Clear
3:00 PM 8.6 °F 0.1 °F 8.6 °F 100% 30.16 in 10.0 mi East 4.6 mph - N/A   Clear
3:20 PM 8.6 °F 0.1 °F 8.6 °F 100% 30.16 in 10.0 mi East 4.6 mph - N/A   Mostly Cloudy
3:40 PM 8.6 °F 0.1 °F 8.6 °F 100% 30.16 in 10.0 mi ENE 4.6 mph - N/A   Overcast
4:00 PM 8.6 °F 0.1 °F 8.6 °F 100% 30.16 in 10.0 mi ENE 4.6 mph - N/A   Overcast
4:20 PM 8.6 °F -1.3 °F 8.6 °F 100% 30.16 in 10.0 mi ENE 5.8 mph - N/A   Overcast
4:40 PM 8.6 °F -1.3 °F 8.6 °F 100% 30.16 in 10.0 mi ENE 5.8 mph - N/A   Overcast
5:00 PM 6.8 °F -3.5 °F 6.8 °F 100% 30.17 in 10.0 mi East 5.8 mph - N/A   Overcast
5:20 PM 6.8 °F -5.9 °F 6.8 °F 100% 30.17 in 10.0 mi ENE 8.1 mph - N/A   Overcast
5:40 PM 6.8 °F -5.9 °F 6.8 °F 100% 30.17 in 10.0 mi ENE 8.1 mph - N/A   Overcast
5:55 PM 6.8 °F -4.8 °F 6.8 °F 100% 30.17 in 10.0 mi ENE 6.9 mph - N/A   Overcast
6:20 PM 6.8 °F -2.0 °F 6.8 °F 100% 30.17 in 10.0 mi East 4.6 mph - N/A   Overcast
6:40 PM 6.8 °F -0.1 °F 6.8 °F 100% 30.18 in 10.0 mi East 3.5 mph - N/A   Overcast
7:00 PM 6.8 °F -0.1 °F 6.8 °F 100% 30.18 in 10.0 mi ESE 3.5 mph - N/A   Overcast
7:20 PM 6.8 °F -0.1 °F 6.8 °F 100% 30.18 in 10.0 mi East 3.5 mph - N/A   Overcast
7:40 PM 6.8 °F -0.1 °F 6.8 °F 100% 30.18 in 10.0 mi SSE 3.5 mph - N/A   Overcast
8:20 PM 6.8 °F -2.0 °F 6.8 °F 100% 30.17 in 10.0 mi SSE 4.6 mph - N/A   Overcast
8:40 PM 6.8 °F - 6.8 °F 100% 30.18 in 10.0 mi Calm Calm - N/A   Overcast
9:00 PM 6.8 °F -2.0 °F 6.8 °F 100% 30.17 in 10.0 mi SE 4.6 mph - N/A   Overcast
9:20 PM 6.8 °F -3.5 °F 6.8 °F 100% 30.17 in 10.0 mi SSE 5.8 mph - N/A   Overcast
9:40 PM 6.8 °F -3.5 °F 6.8 °F 100% 30.17 in 10.0 mi SSE 5.8 mph - N/A   Overcast
10:00 PM 6.8 °F -3.5 °F 6.8 °F 100% 30.17 in 10.0 mi SSE 5.8 mph - N/A   Overcast
10:20 PM 6.8 °F -3.5 °F 6.8 °F 100% 30.17 in 10.0 mi SSE 5.8 mph - N/A   Overcast
10:40 PM 6.8 °F -3.5 °F 6.8 °F 100% 30.18 in 10.0 mi SSE 5.8 mph - N/A   Overcast
11:00 PM 6.8 °F -4.8 °F 6.8 °F 100% 30.19 in 10.0 mi SSE 6.9 mph - N/A   Overcast
11:20 PM 6.8 °F -2.0 °F 6.8 °F 100% 30.19 in 10.0 mi South 4.6 mph - N/A   Overcast
11:40 PM 6.8 °F -3.5 °F 6.8 °F 100% 30.19 in 10.0 mi South 5.8 mph - N/A   Overcast